createdAt,value
2018-05-03T00:00:13.481Z,98109.18
2018-05-03T00:02:40.959Z,98120.19
2018-05-03T00:05:08.423Z,98116.25
2018-05-03T00:07:35.903Z,98125.88
2018-05-03T00:10:03.405Z,98122.57
2018-05-03T00:12:30.927Z,98123.83
2018-05-03T00:14:58.387Z,98131.23
2018-05-03T00:17:25.882Z,98126.51
2018-05-03T00:19:53.375Z,98122.23
2018-05-03T00:22:20.853Z,98119.97
2018-05-03T00:24:48.309Z,98119.19
2018-05-03T00:27:15.800Z,98116.59
2018-05-03T00:29:43.273Z,98122.23
2018-05-03T00:32:10.778Z,98124.08
2018-05-03T00:34:38.267Z,98122.16
2018-05-03T00:37:06.755Z,98120.19
2018-05-03T00:39:34.214Z,98126.67
2018-05-03T00:42:02.716Z,98124.00
2018-05-03T00:44:30.199Z,98130.31
2018-05-03T00:46:57.689Z,98132.44
2018-05-03T00:49:25.155Z,98121.66
2018-05-03T00:51:52.647Z,98121.61
2018-05-03T00:54:32.004Z,98126.75
2018-05-03T00:56:59.499Z,98127.02
2018-05-03T00:59:26.961Z,98121.31
2018-05-03T01:01:54.437Z,98121.41
2018-05-03T01:04:21.921Z,98119.65
2018-05-03T01:06:49.386Z,98121.74
2018-05-03T01:09:16.884Z,98113.50
2018-05-03T01:11:44.355Z,98115.26
2018-05-03T01:14:11.859Z,98111.61
2018-05-03T01:16:39.331Z,98118.02
2018-05-03T01:19:06.818Z,98130.77
2018-05-03T01:21:34.282Z,98137.94
2018-05-03T01:24:01.774Z,98135.88
2018-05-03T01:26:29.237Z,98140.31
2018-05-03T01:28:56.725Z,98138.52
2018-05-03T01:31:24.190Z,98145.29
2018-05-03T01:33:51.706Z,98149.06
2018-05-03T01:36:26.884Z,98144.16
2018-05-03T01:38:54.386Z,98140.61
2018-05-03T01:41:21.854Z,98145.42
2018-05-03T01:43:49.338Z,98143.88
2018-05-03T01:46:16.830Z,98146.97
2018-05-03T01:48:44.325Z,98151.83
2018-05-03T01:51:11.795Z,98155.50
2018-05-03T01:53:39.346Z,98155.87
2018-05-03T01:56:06.825Z,98160.73
2018-05-03T01:58:34.310Z,98161.28
2018-05-03T02:01:01.815Z,98155.59
2018-05-03T02:03:29.321Z,98167.13
2018-05-03T02:05:56.790Z,98169.09
2018-05-03T02:08:24.286Z,98164.37
2018-05-03T02:10:51.745Z,98158.81
2018-05-03T02:13:19.242Z,98156.63
2018-05-03T02:15:46.726Z,98156.34
2018-05-03T02:18:14.198Z,98156.50
2018-05-03T02:20:41.702Z,98145.87
2018-05-03T02:23:09.170Z,98152.81
2018-05-03T02:25:36.671Z,98149.01
2018-05-03T02:28:04.152Z,98147.25
2018-05-03T02:30:31.643Z,98147.55
2018-05-03T02:32:59.102Z,98153.31
2018-05-03T02:35:26.598Z,98156.07
2018-05-03T02:37:54.064Z,98162.05
2018-05-03T02:40:21.586Z,98161.91
2018-05-03T02:42:49.050Z,98170.28
2018-05-03T02:45:16.534Z,98164.88
2018-05-03T02:47:44.001Z,98172.97
2018-05-03T02:50:11.514Z,98168.03
2018-05-03T02:52:39.034Z,98170.28
2018-05-03T02:55:06.530Z,98165.77
2018-05-03T02:57:51.545Z,98156.64
2018-05-03T03:00:36.455Z,98152.25
2018-05-03T03:03:21.626Z,98156.13
2018-05-03T03:06:06.705Z,98162.19
2018-05-03T03:12:21.475Z,98161.46
2018-05-03T03:15:06.623Z,98165.84
2018-05-03T03:17:51.687Z,98163.80
2018-05-03T03:23:12.886Z,98165.64
2018-05-03T03:29:33.170Z,98164.28
2018-05-03T03:32:15.478Z,98154.06
2018-05-03T03:34:42.950Z,98154.06
2018-05-03T03:37:22.298Z,98149.78
2018-05-03T03:40:07.287Z,98151.95
2018-05-03T03:45:47.723Z,98157.30
2018-05-03T03:48:15.229Z,98161.45
2018-05-03T03:50:42.745Z,98156.38
2018-05-03T03:53:10.235Z,98155.97
2018-05-03T03:55:37.722Z,98152.74
2018-05-03T03:58:05.214Z,98144.64
2018-05-03T04:00:32.712Z,98144.44
2018-05-03T04:03:00.187Z,98150.28
2018-05-03T04:05:27.666Z,98153.37
2018-05-03T04:07:55.161Z,98153.15
2018-05-03T04:10:22.627Z,98159.63
2018-05-03T04:12:50.321Z,98159.89
2018-05-03T04:15:17.822Z,98168.06
2018-05-03T04:17:57.185Z,98165.31
2018-05-03T04:20:40.453Z,98170.04
2018-05-03T04:23:27.914Z,98173.27
2018-05-03T04:26:04.290Z,98173.42
2018-05-03T04:28:31.756Z,98177.66
2018-05-03T04:30:59.223Z,98175.83
2018-05-03T04:33:26.710Z,98181.05
2018-05-03T04:35:54.195Z,98190.88
2018-05-03T04:38:21.687Z,98188.56
2018-05-03T04:40:49.171Z,98193.83
2018-05-03T04:43:16.702Z,98195.25
2018-05-03T04:45:44.182Z,98199.47
2018-05-03T04:48:11.858Z,98195.37
2018-05-03T04:50:39.327Z,98198.34
2018-05-03T04:53:06.822Z,98195.19
2018-05-03T04:55:34.302Z,98192.85
2018-05-03T04:58:01.824Z,98189.34
2018-05-03T05:00:29.337Z,98197.59
2018-05-03T05:02:56.838Z,98193.06
2018-05-03T05:05:24.302Z,98199.71
2018-05-03T05:07:51.790Z,98194.84
2018-05-03T05:10:19.254Z,98198.09
2018-05-03T05:12:46.742Z,98197.09
2018-05-03T05:15:14.205Z,98202.44
2018-05-03T05:17:41.726Z,98207.47
2018-05-03T05:20:09.198Z,98200.91
2018-05-03T05:22:36.695Z,98199.66
2018-05-03T05:25:04.162Z,98208.30
2018-05-03T05:27:31.688Z,98210.78
2018-05-03T05:29:59.178Z,98212.19
2018-05-03T05:32:26.650Z,98216.83
2018-05-03T05:34:54.136Z,98216.34
2018-05-03T05:37:21.626Z,98227.34
2018-05-03T05:39:49.113Z,98234.08
2018-05-03T05:42:16.573Z,98238.61
2018-05-03T05:44:44.058Z,98250.36
2018-05-03T05:47:11.523Z,98251.64
2018-05-03T05:49:39.017Z,98253.08
2018-05-03T05:52:06.513Z,98255.01
2018-05-03T05:54:34.002Z,98263.72
2018-05-03T05:57:01.499Z,98264.08
2018-05-03T05:59:29.012Z,98273.86
2018-05-03T06:01:56.490Z,98266.67
2018-05-03T06:04:23.975Z,98277.23
2018-05-03T06:06:51.475Z,98267.31
2018-05-03T06:09:18.961Z,98275.69
2018-05-03T06:11:46.427Z,98274.00
2018-05-03T06:14:14.875Z,98283.73
2018-05-03T06:16:42.364Z,98283.97
2018-05-03T06:19:09.862Z,98280.23
2018-05-03T06:21:37.334Z,98284.68
2018-05-03T06:24:04.839Z,98285.75
2018-05-03T06:26:32.311Z,98283.28
2018-05-03T06:28:59.813Z,98291.62
2018-05-03T06:31:27.274Z,98283.94
2018-05-03T06:33:54.780Z,98290.44
2018-05-03T06:36:22.249Z,98288.27
2018-05-03T06:38:49.784Z,98287.06
2018-05-03T06:41:17.255Z,98289.48
2018-05-03T06:43:44.800Z,98291.62
2018-05-03T06:46:12.234Z,98292.20
2018-05-03T06:48:39.702Z,98286.84
2018-05-03T06:51:07.194Z,98294.08
2018-05-03T06:53:34.662Z,98289.78
2018-05-03T06:56:02.166Z,98300.15
2018-05-03T06:58:29.640Z,98300.32
2018-05-03T07:00:57.138Z,98298.09
2018-05-03T07:03:24.623Z,98294.66
2018-05-03T07:05:52.110Z,98292.13
2018-05-03T07:08:19.587Z,98290.86
2018-05-03T07:10:48.917Z,98286.97
2018-05-03T07:13:16.390Z,98289.20
2018-05-03T07:15:43.879Z,98291.20
2018-05-03T07:18:11.364Z,98297.81
2018-05-03T07:20:39.826Z,98305.65
2018-05-03T07:23:07.318Z,98312.19
2018-05-03T07:25:34.813Z,98307.96
2018-05-03T07:28:02.310Z,98302.18
2018-05-03T07:30:31.806Z,98303.59
2018-05-03T07:32:59.269Z,98303.81
2018-05-03T07:35:26.754Z,98302.34
2018-05-03T07:37:54.247Z,98298.03
2018-05-03T07:40:21.729Z,98300.50
2018-05-03T07:42:49.196Z,98296.27
2018-05-03T07:45:16.686Z,98299.91
2018-05-03T07:47:44.166Z,98298.98
2018-05-03T07:50:11.647Z,98297.75
2018-05-03T07:52:39.133Z,98306.28
2018-05-03T07:55:06.603Z,98305.57
2018-05-03T07:57:34.106Z,98304.94
2018-05-03T08:00:01.584Z,98302.56
2018-05-03T08:02:29.078Z,98295.69
2018-05-03T08:04:56.551Z,98295.23
2018-05-03T08:07:24.042Z,98300.32
2018-05-03T08:09:51.502Z,98298.48
2018-05-03T08:12:20.003Z,98286.91
2018-05-03T08:14:47.471Z,98289.73
2018-05-03T08:17:15.000Z,98292.56
2018-05-03T08:19:42.567Z,98304.62
2018-05-03T08:22:10.100Z,98304.54
2018-05-03T08:24:37.571Z,98304.79
2018-05-03T08:27:05.058Z,98306.99
2018-05-03T08:29:32.551Z,98314.16
2018-05-03T08:32:00.074Z,98312.92
2018-05-03T08:34:27.552Z,98321.66
2018-05-03T08:36:55.128Z,98324.66
2018-05-03T08:39:22.631Z,98322.73
2018-05-03T08:41:50.118Z,98323.89
2018-05-03T08:44:17.590Z,98324.28
2018-05-03T08:46:45.082Z,98322.42
2018-05-03T08:49:12.554Z,98336.65
2018-05-03T08:51:40.047Z,98338.20
2018-05-03T08:54:07.539Z,98333.78
2018-05-03T08:56:35.001Z,98343.41
2018-05-03T08:59:02.514Z,98334.59
2018-05-03T09:01:30.068Z,98334.16
2018-05-03T09:03:57.534Z,98331.02
2018-05-03T09:06:25.002Z,98331.91
2018-05-03T09:08:52.514Z,98333.38
2018-05-03T09:11:19.984Z,98329.63
2018-05-03T09:13:47.471Z,98331.28
2018-05-03T09:16:14.947Z,98335.78
2018-05-03T09:18:42.438Z,98327.88
2018-05-03T09:21:09.933Z,98341.72
2018-05-03T09:23:37.426Z,98347.78
2018-05-03T09:26:04.893Z,98342.09
2018-05-03T09:28:32.381Z,98347.13
2018-05-03T09:30:59.871Z,98341.16
2018-05-03T09:33:27.366Z,98353.67
2018-05-03T09:35:54.859Z,98343.52
2018-05-03T09:38:22.350Z,98350.49
2018-05-03T09:40:49.817Z,98346.63
2018-05-03T09:43:17.326Z,98345.61
2018-05-03T09:45:44.795Z,98341.86
2018-05-03T09:48:12.312Z,98349.89
2018-05-03T09:50:39.794Z,98354.48
2018-05-03T09:53:07.286Z,98350.44
2018-05-03T09:55:34.754Z,98353.51
2018-05-03T09:58:02.251Z,98355.04
2018-05-03T10:00:29.723Z,98352.30
2018-05-03T10:02:57.199Z,98350.80
2018-05-03T10:05:24.684Z,98357.83
2018-05-03T10:07:52.178Z,98356.38
2018-05-03T10:10:19.661Z,98356.80
2018-05-03T10:12:47.130Z,98354.77
2018-05-03T10:15:14.653Z,98359.12
2018-05-03T10:17:42.118Z,98354.30
2018-05-03T10:20:09.610Z,98353.92
2018-05-03T10:22:37.180Z,98350.91
2018-05-03T10:25:04.650Z,98348.86
2018-05-03T10:27:32.171Z,98350.30
2018-05-03T10:29:59.739Z,98350.95
2018-05-03T10:32:27.153Z,98349.80
2018-05-03T10:34:54.678Z,98344.17
2018-05-03T10:37:22.146Z,98343.39
2018-05-03T10:39:49.662Z,98342.22
2018-05-03T10:42:18.083Z,98342.56
2018-05-03T10:44:45.619Z,98348.62
2018-05-03T10:47:13.106Z,98346.27
2018-05-03T10:49:40.603Z,98352.02
2018-05-03T10:52:08.066Z,98337.44
2018-05-03T10:54:35.566Z,98338.42
2018-05-03T10:57:03.043Z,98342.46
2018-05-03T10:59:30.535Z,98340.14
2018-05-03T11:01:57.998Z,98336.99
2018-05-03T11:04:25.497Z,98332.02
2018-05-03T11:06:52.971Z,98334.56
2018-05-03T11:09:20.459Z,98329.94
2018-05-03T11:11:47.930Z,98330.89
2018-05-03T11:14:15.488Z,98325.70
2018-05-03T11:16:43.043Z,98328.67
2018-05-03T11:19:10.462Z,98324.89
2018-05-03T11:21:37.951Z,98326.23
2018-05-03T11:24:05.427Z,98319.71
2018-05-03T11:26:32.910Z,98321.23
2018-05-03T11:29:00.376Z,98327.25
2018-05-03T11:31:27.920Z,98332.77
2018-05-03T11:33:55.343Z,98335.98
2018-05-03T11:36:24.821Z,98326.64
2018-05-03T11:38:52.297Z,98327.05
2018-05-03T11:41:20.758Z,98324.41
2018-05-03T11:43:48.265Z,98323.30
2018-05-03T11:46:15.809Z,98322.84
2018-05-03T11:48:43.493Z,98320.62
2018-05-03T11:51:10.970Z,98319.38
2018-05-03T11:53:38.458Z,98317.93
2018-05-03T11:56:05.946Z,98312.25
2018-05-03T11:58:33.434Z,98309.29
2018-05-03T12:01:00.927Z,98317.70
2018-05-03T12:03:28.394Z,98311.88
2018-05-03T12:05:55.981Z,98315.33
2018-05-03T12:08:23.393Z,98318.39
2018-05-03T12:10:50.884Z,98308.86
2018-05-03T12:13:18.352Z,98309.56
2018-05-03T12:15:45.843Z,98308.80
2018-05-03T12:18:13.316Z,98310.25
2018-05-03T12:20:40.806Z,98311.81
2018-05-03T12:23:08.314Z,98316.91
2018-05-03T12:25:35.794Z,98303.09
2018-05-03T12:28:03.285Z,98303.73
2018-05-03T12:30:30.749Z,98299.31
2018-05-03T12:32:58.243Z,98307.89
2018-05-03T12:35:25.726Z,98309.02
2018-05-03T12:37:53.240Z,98308.61
2018-05-03T12:40:20.719Z,98305.51
2018-05-03T12:42:48.206Z,98311.13
2018-05-03T12:45:15.707Z,98310.44
2018-05-03T12:47:43.198Z,98308.85
2018-05-03T12:50:10.671Z,98312.53
2018-05-03T12:52:38.163Z,98311.45
2018-05-03T12:55:05.630Z,98317.21
2018-05-03T12:57:33.143Z,98319.07
2018-05-03T13:00:00.615Z,98315.45
2018-05-03T13:02:28.095Z,98319.52
2018-05-03T13:04:55.581Z,98318.75
2018-05-03T13:07:23.074Z,98309.94
2018-05-03T13:09:50.539Z,98306.20
2018-05-03T13:12:18.059Z,98307.88
2018-05-03T13:14:45.528Z,98307.93
2018-05-03T13:17:13.028Z,98307.33
2018-05-03T13:19:40.500Z,98304.09
2018-05-03T13:22:07.994Z,98318.39
2018-05-03T13:24:35.450Z,98306.41
2018-05-03T13:27:02.962Z,98298.86
2018-05-03T13:29:30.499Z,98305.60
2018-05-03T13:31:58.021Z,98299.11
2018-05-03T13:34:25.534Z,98302.48
2018-05-03T13:36:53.003Z,98310.77
2018-05-03T13:39:20.466Z,98303.11
2018-05-03T13:41:47.975Z,98308.66
2018-05-03T13:44:15.449Z,98304.71
2018-05-03T13:46:42.910Z,98300.65
2018-05-03T13:49:10.397Z,98300.80
2018-05-03T13:51:37.867Z,98309.06
2018-05-03T13:54:05.354Z,98299.14
2018-05-03T13:59:05.839Z,98304.45
2018-05-03T14:01:33.324Z,98306.03
2018-05-03T14:04:00.805Z,98302.63
2018-05-03T14:06:28.273Z,98301.97
2018-05-03T14:08:55.778Z,98300.05
2018-05-03T14:11:23.241Z,98298.27
2018-05-03T14:13:50.745Z,98299.22
2018-05-03T14:16:18.239Z,98296.88
2018-05-03T14:18:45.719Z,98299.73
2018-05-03T14:21:13.189Z,98300.00
2018-05-03T14:23:40.682Z,98297.81
2018-05-03T14:26:08.158Z,98298.34
2018-05-03T14:28:35.651Z,98296.50
2018-05-03T14:31:03.129Z,98295.22
2018-05-03T14:33:30.620Z,98285.94
2018-05-03T14:35:58.105Z,98289.02
2018-05-03T14:38:25.594Z,98291.16
2018-05-03T14:40:54.040Z,98291.11
2018-05-03T14:43:21.534Z,98292.09
2018-05-03T14:45:49.104Z,98292.98
2018-05-03T14:48:16.543Z,98295.36
2018-05-03T14:50:44.018Z,98290.14
2018-05-03T14:53:11.516Z,98286.70
2018-05-03T14:55:38.998Z,98278.86
2018-05-03T14:58:06.466Z,98281.58
2018-05-03T15:00:33.951Z,98279.37
2018-05-03T15:03:01.432Z,98279.04
2018-05-03T15:05:28.946Z,98280.07
2018-05-03T15:07:56.411Z,98280.30
2018-05-03T15:10:23.901Z,98281.28
2018-05-03T15:12:51.370Z,98279.86
2018-05-03T15:15:19.782Z,98281.64
2018-05-03T15:17:47.239Z,98278.48
2018-05-03T15:20:14.762Z,98280.19
2018-05-03T15:22:42.230Z,98279.83
2018-05-03T15:25:09.711Z,98274.66
2018-05-03T15:27:37.225Z,98274.66
2018-05-03T15:30:04.706Z,98279.06
2018-05-03T15:32:32.199Z,98275.02
2018-05-03T15:34:59.801Z,98272.19
2018-05-03T15:37:27.368Z,98283.89
2018-05-03T15:39:54.859Z,98281.73
2018-05-03T15:42:22.326Z,98277.72
2018-05-03T15:44:49.835Z,98273.34
2018-05-03T15:47:17.298Z,98283.77
2018-05-03T15:49:44.787Z,98279.88
2018-05-03T15:52:12.251Z,98276.81
2018-05-03T15:54:39.761Z,98272.17
2018-05-03T15:57:07.234Z,98265.75
2018-05-03T15:59:34.709Z,98278.54
2018-05-03T16:02:02.203Z,98275.69
2018-05-03T16:04:29.866Z,98272.63
2018-05-03T16:06:57.331Z,98280.88
2018-05-03T16:09:24.826Z,98277.71
2018-05-03T16:11:52.330Z,98276.88
2018-05-03T16:14:19.826Z,98271.00
2018-05-03T16:16:47.303Z,98269.69
2018-05-03T16:19:14.818Z,98270.31
2018-05-03T16:21:42.283Z,98277.48
2018-05-03T16:24:10.737Z,98268.66
2018-05-03T16:26:38.218Z,98265.68
2018-05-03T16:29:05.670Z,98271.41
2018-05-03T16:31:33.160Z,98267.81
2018-05-03T16:34:00.635Z,98271.97
2018-05-03T16:36:28.125Z,98268.38
2018-05-03T16:38:55.586Z,98270.28
2018-05-03T16:41:23.067Z,98271.85
2018-05-03T16:43:50.526Z,98274.77
2018-05-03T16:46:18.031Z,98285.04
2018-05-03T16:48:45.527Z,98279.41
2018-05-03T16:51:13.018Z,98280.92
2018-05-03T16:53:40.481Z,98277.13
2018-05-03T16:56:07.967Z,98281.02
2018-05-03T16:58:35.433Z,98284.68
2018-05-03T17:01:02.914Z,98279.63
2018-05-03T17:03:30.374Z,98276.03
2018-05-03T17:05:57.867Z,98284.61
2018-05-03T17:08:25.325Z,98277.85
2018-05-03T17:10:52.816Z,98274.50
2018-05-03T17:13:20.301Z,98284.47
2018-05-03T17:15:47.806Z,98291.53
2018-05-03T17:18:15.282Z,98289.60
2018-05-03T17:20:42.781Z,98296.09
2018-05-03T17:23:10.238Z,98291.98
2018-05-03T17:25:37.728Z,98298.05
2018-05-03T17:28:05.200Z,98302.85
2018-05-03T17:30:32.695Z,98298.99
2018-05-03T17:33:00.174Z,98298.65
2018-05-03T17:35:27.826Z,98300.34
2018-05-03T17:37:55.414Z,98298.66
2018-05-03T17:40:22.875Z,98308.09
2018-05-03T17:42:50.374Z,98309.77
2018-05-03T17:45:17.868Z,98313.25
2018-05-03T17:47:45.349Z,98309.51
2018-05-03T17:50:12.811Z,98313.16
2018-05-03T17:52:40.297Z,98310.53
2018-05-03T17:55:07.787Z,98312.12
2018-05-03T17:57:35.271Z,98317.78
2018-05-03T18:00:02.730Z,98324.43
2018-05-03T18:02:30.222Z,98330.84
2018-05-03T18:04:57.691Z,98332.04
2018-05-03T18:07:25.170Z,98337.67
2018-05-03T18:09:52.639Z,98346.52
2018-05-03T18:12:20.133Z,98349.73
2018-05-03T18:14:47.590Z,98346.94
2018-05-03T18:17:15.073Z,98350.98
2018-05-03T18:19:42.568Z,98355.45
2018-05-03T18:22:10.058Z,98359.68
2018-05-03T18:24:37.518Z,98360.17
2018-05-03T18:27:05.004Z,98359.91
2018-05-03T18:29:32.491Z,98367.31
2018-05-03T18:31:59.985Z,98368.07
2018-05-03T18:34:27.446Z,98363.51
2018-05-03T18:36:54.907Z,98367.73
2018-05-03T18:39:22.639Z,98370.91
2018-05-03T18:41:51.121Z,98377.98
2018-05-03T18:44:18.606Z,98386.38
2018-05-03T18:46:46.063Z,98379.41
2018-05-03T18:49:13.552Z,98387.55
2018-05-03T18:51:41.010Z,98391.69
2018-05-03T18:54:08.501Z,98387.64
2018-05-03T18:56:35.962Z,98392.53
2018-05-03T18:59:04.197Z,98393.84
2018-05-03T19:01:31.654Z,98397.02
2018-05-03T19:03:59.310Z,98398.38
2018-05-03T19:06:26.723Z,98398.25
2018-05-03T19:08:54.251Z,98397.09
2018-05-03T19:11:21.710Z,98397.83
2018-05-03T19:13:49.194Z,98401.70
2018-05-03T19:16:16.653Z,98397.23
2018-05-03T19:18:44.181Z,98397.05
2018-05-03T19:21:11.639Z,98393.67
2018-05-03T19:23:39.135Z,98398.13
2018-05-03T19:26:06.598Z,98400.59
2018-05-03T19:28:34.082Z,98400.32
2018-05-03T19:31:01.558Z,98397.80
2018-05-03T19:33:30.029Z,98400.92
2018-05-03T19:35:57.495Z,98406.48
2018-05-03T19:38:24.975Z,98403.89
2018-05-03T19:40:52.451Z,98402.36
2018-05-03T19:43:19.958Z,98405.53
2018-05-03T19:45:47.419Z,98411.25
2018-05-03T19:48:15.000Z,98408.19
2018-05-03T19:50:42.483Z,98409.21
2018-05-03T19:53:09.949Z,98412.23
2018-05-03T19:55:37.426Z,98424.03
2018-05-03T19:58:04.886Z,98424.50
2018-05-03T20:00:32.494Z,98422.83
2018-05-03T20:02:59.962Z,98422.47
2018-05-03T20:05:27.473Z,98426.69
2018-05-03T20:07:54.949Z,98421.44
2018-05-03T20:10:22.426Z,98421.02
2018-05-03T20:12:49.886Z,98412.85
2018-05-03T20:15:17.436Z,98415.87
2018-05-03T20:17:44.883Z,98413.22
2018-05-03T20:20:12.367Z,98414.11
2018-05-03T20:22:39.920Z,98419.08
2018-05-03T20:25:07.422Z,98412.25
2018-05-03T20:27:34.878Z,98407.52
2018-05-03T20:30:02.394Z,98409.19
2018-05-03T20:32:29.858Z,98408.17
2018-05-03T20:34:57.354Z,98407.98
2018-05-03T20:37:24.808Z,98400.23
2018-05-03T20:39:52.287Z,98402.00
2018-05-03T20:42:19.742Z,98398.89
2018-05-03T20:44:47.222Z,98404.09
2018-05-03T20:47:14.699Z,98405.08
2018-05-03T20:49:42.191Z,98403.40
2018-05-03T20:52:09.670Z,98398.52
2018-05-03T20:54:37.127Z,98396.48
2018-05-03T20:57:04.607Z,98395.52
2018-05-03T20:59:32.080Z,98400.06
2018-05-03T21:01:59.571Z,98398.63
2018-05-03T21:04:27.030Z,98400.20
2018-05-03T21:06:54.508Z,98397.14
2018-05-03T21:09:21.966Z,98396.39
2018-05-03T21:11:49.447Z,98397.97
2018-05-03T21:14:16.902Z,98405.34
2018-05-03T21:16:44.378Z,98394.81
2018-05-03T21:19:11.843Z,98391.47
2018-05-03T21:21:39.329Z,98397.00
2018-05-03T21:24:06.958Z,98394.91
2018-05-03T21:26:34.442Z,98395.83
2018-05-03T21:29:01.985Z,98396.56
2018-05-03T21:31:29.466Z,98388.97
2018-05-03T21:33:56.922Z,98394.21
2018-05-03T21:36:24.402Z,98395.09
2018-05-03T21:38:51.862Z,98402.75
2018-05-03T21:41:19.337Z,98395.78
2018-05-03T21:43:46.800Z,98388.88
2018-05-03T21:46:14.282Z,98396.25
2018-05-03T21:48:41.733Z,98396.06
2018-05-03T21:51:09.222Z,98398.06
2018-05-03T21:53:36.701Z,98395.82
2018-05-03T21:56:04.192Z,98398.93
2018-05-03T21:58:31.645Z,98396.89
2018-05-03T22:00:59.134Z,98398.80
2018-05-03T22:03:26.592Z,98396.20
2018-05-03T22:05:54.055Z,98401.91
2018-05-03T22:08:21.536Z,98401.49
2018-05-03T22:10:49.068Z,98406.40
2018-05-03T22:13:16.564Z,98406.40
2018-05-03T22:15:44.022Z,98407.80
2018-05-03T22:18:11.497Z,98411.19
2018-05-03T22:20:39.007Z,98417.16
2018-05-03T22:23:06.545Z,98417.08
2018-05-03T22:25:34.009Z,98421.11
2018-05-03T22:28:01.509Z,98416.23
2018-05-03T22:30:28.976Z,98417.91
2018-05-03T22:32:56.460Z,98421.77
2018-05-03T22:35:23.922Z,98429.09
2018-05-03T22:37:51.406Z,98428.72
2018-05-03T22:40:18.870Z,98433.91
2018-05-03T22:42:46.435Z,98434.23
2018-05-03T22:45:13.908Z,98435.07
2018-05-03T22:47:41.393Z,98437.23
2018-05-03T22:50:08.859Z,98437.29
2018-05-03T22:52:36.337Z,98436.88
2018-05-03T22:55:03.805Z,98433.25
2018-05-03T22:57:31.285Z,98431.91
2018-05-03T22:59:58.749Z,98434.77
2018-05-03T23:02:26.232Z,98434.19
2018-05-03T23:04:53.693Z,98430.14
2018-05-03T23:07:21.199Z,98436.40
2018-05-03T23:09:48.680Z,98440.17
2018-05-03T23:12:16.223Z,98436.33
2018-05-03T23:14:43.709Z,98435.62
2018-05-03T23:17:11.164Z,98440.83
2018-05-03T23:19:38.643Z,98441.80
2018-05-03T23:22:06.104Z,98438.37
2018-05-03T23:24:33.582Z,98442.14
2018-05-03T23:27:01.048Z,98444.55
2018-05-03T23:29:28.522Z,98428.91
2018-05-03T23:31:55.984Z,98427.69
2018-05-03T23:34:23.545Z,98425.64
2018-05-03T23:36:50.938Z,98421.97
2018-05-03T23:39:18.461Z,98418.21
2018-05-03T23:41:45.922Z,98411.80
2018-05-03T23:44:13.402Z,98411.11
2018-05-03T23:46:40.858Z,98413.20
2018-05-03T23:49:08.341Z,98409.25
2018-05-03T23:51:35.814Z,98407.13
2018-05-03T23:54:03.296Z,98400.66
2018-05-03T23:56:30.776Z,98408.92
2018-05-03T23:58:58.274Z,98400.66
